SUCCESS DAM (SCC)

Elevation: 692' · TULE R basin · Operator: US Army Corps of Engineers

Provisional data, subject to change.
Query executed Tuesday at 3:57:44   clock

Select a sensor type for a plot of data.
Note: Reservoir Flows are daily averages.

Earlier

Date RES ELE    STORAGE    RES CHG    TOC STO    ABV TOC    OUTFLOW    INFLOW    FNF    PPT INC    PPTINC4    TEMP MN    TEMP MX    WINDLEN    EVP PAN   
 FEET   AF   AF   AF   AF   CFS   CFS   CFS   INCHES   INCHES   DEG F   DEG F   MILES   INCHES  
06/08/2015 591.43 8374 -32 82300 -73926 12 1 1 0.04 0.00 21 41 64 0.34
06/09/2015 591.38 8352 -22 82300 -73948 8 -1 -1 0.00 0.01 21 34 57 0.16
06/10/2015 591.34 8334 -18 82300 -73966 5 1 1 0.00 0.00 20 34 77 0.32
06/11/2015 591.28 8307 -27 82300 -73993 8 -1 -1 0.00 0.00 19 34 64 0.31
06/12/2015 591.22 8280 -27 82300 -74020 9 -0 0 0.00 0.00 23 39 71 0.34
06/13/2015 591.18 8262 -18 82300 -74038 4 0 0 0.00 0.00 24 40 72 0.35
06/14/2015 591.12 8235 -27 82300 -74065 7 -2 -2 0.00 0.01 20 40 60 0.33
06/15/2015 590.97 8169 -66 82300 -74131 27 -2 -2 0.00 0.00 18 39 64 0.34
06/16/2015 590.81 8098 -71 82300 -74202 31 -1 -1 0.00 0.00 17 38 64 0.33
06/17/2015 590.66 8032 -66 82300 -74268 27 -2 -2 0.00 0.00 18 39 64 0.34
06/18/2015 590.50 7962 -70 82300 -74338 28 -3 -3 0.00 0.00 17 39 69 0.34
06/19/2015 590.35 7897 -65 82300 -74403 27 -2 -2 0.00 0.00 17 37 64 0.33
06/20/2015 590.21 7837 -60 82300 -74463 24 -2 -2 0.00 0.00 17 39 65 0.33
06/21/2015 590.07 7777 -60 82300 -- 23 -3 -3 0.00 0.00 18 37 70 0.33
06/22/2015 589.99 7743 -34 82300 -74557 12 -1 -1 0.00 0.00 16 36 71 0.33
06/23/2015 589.95 7726 -17 82300 -74574 5 0 0 0.00 0.00 15 37 62 0.32
06/24/2015 589.90 7705 -21 82300 -74595 6 -1 -1 0.00 0.00 17 38 64 0.33
06/25/2015 589.85 7683 -22 82300 -74617 6 -0 0 0.00 0.00 22 40 61 0.34
06/26/2015 589.80 7662 -21 82300 -- 6 -0 0 0.00 0.00 22 42 58 0.32
06/27/2015 589.76 7645 -17 82300 -- 4 -1 -1 0.00 0.00 22 39 51 0.28
06/28/2015 589.70 7620 -25 82300 -- 8 -2 -2 0.00 0.00 24 37 59 0.22
06/29/2015 589.57 7565 -55 82300 -74735 24 -0 0 0.00 0.00 23 37 71 0.26
06/30/2015 589.42 7503 -62 82300 -74797 27 0 0 0.00 0.00 26 41 69 0.35
07/01/2015 589.27 7440 -63 82300 -74860 27 -2 -2 0.00 0.00 26 39 66 0.21
07/02/2015 589.12 7378 -62 82300 -74922 26 -2 -2 0.00 0.00 26 40 59 0.25
07/03/2015 588.99 7325 -53 82300 -74975 24 2 2 0.00 0.00 24 40 62 0.33
07/04/2015 588.86 7272 -53 82300 -75028 20 -2 -2 0.00 0.00 22 40 80 0.35
07/05/2015 588.80 7247 -25 82300 -75053 9 0 0 0.00 0.00 23 38 73 0.34
07/06/2015 588.75 7227 -20 82300 -- 6 0 -- 0.00 0.00 21 36 76 0.32
07/07/2015 -- -- -- -- -- -- -- -- -- -- -- -- -- --

Later | Latest

Warning! This data is preliminary and subject to revision.

Show SCC Map | Plot SCC Data | 1 Month SCC Data | Real-Time SCC Data | SCC Info